Time;durP1;ratioP1;P1;durP2;ratioP2;P2;SDS_P1;SDS_P2;PMS_P1;PMS_P2;Temp;Humidity;BMP_temperature;BMP_pressure;BME280_temperature;BME280_humidity;BME280_pressure;Samples;Min_cycle;Max_cycle;Signal;HPM_P1;HPM_P2
2023/05/01 00:00:59;;;;;;;4.43;3.03;;;;;;;1.61;nan;101502.06;5013821;28;20040;-82
2023/05/01 00:03:26;;;;;;;6.13;2.83;;;;;;;1.59;nan;101512.41;5024341;28;20143;-82
2023/05/01 00:06:02;;;;;;;4.87;2.60;;;;;;;1.50;nan;101513.84;5030791;28;20112;-82
2023/05/01 00:08:29;;;;;;;6.27;3.43;;;;;;;1.59;nan;101512.41;5013450;28;20129;-81
2023/05/01 00:10:56;;;;;;;6.57;3.40;;;;;;;1.68;nan;101509.19;5020436;28;20043;-80
2023/05/01 00:13:23;;;;;;;4.70;3.23;;;;;;;1.51;nan;101506.06;5005958;28;20124;-81
2023/05/01 00:15:51;;;;;;;6.67;3.43;;;;;;;1.51;nan;101500.00;5032264;28;20120;-80
2023/05/01 00:18:18;;;;;;;5.27;3.33;;;;;;;1.41;nan;101499.72;5011550;28;20037;-80
2023/05/01 00:20:46;;;;;;;7.60;3.97;;;;;;;1.32;nan;101498.56;5044428;28;20028;-80
2023/05/01 00:23:13;;;;;;;4.53;3.17;;;;;;;1.41;nan;101491.91;5018763;28;20506;-80
2023/05/01 00:25:40;;;;;;;4.93;3.10;;;;;;;1.32;nan;101488.16;5032596;28;20101;-80
2023/05/01 00:28:07;;;;;;;5.70;3.10;;;;;;;1.24;nan;101487.91;5021435;28;20043;-80
2023/05/01 00:30:34;;;;;;;7.03;3.27;;;;;;;1.36;nan;101477.88;5036036;28;20107;-80
2023/05/01 00:33:01;;;;;;;5.47;3.03;;;;;;;1.25;nan;101474.06;5017767;28;20088;-80
2023/05/01 00:35:28;;;;;;;7.83;3.33;;;;;;;1.30;nan;101472.50;5031348;28;20049;-80
2023/05/01 00:37:55;;;;;;;6.00;3.50;;;;;;;1.25;nan;101471.44;5029003;28;20047;-80
2023/05/01 00:40:23;;;;;;;5.93;3.20;;;;;;;1.06;nan;101470.00;5026232;28;20033;-80
2023/05/01 00:42:50;;;;;;;4.87;2.67;;;;;;;1.03;nan;101462.13;5018302;28;20647;-80
2023/05/01 00:45:17;;;;;;;5.63;3.57;;;;;;;1.01;nan;101456.00;5026747;28;20055;-80
2023/05/01 00:47:44;;;;;;;5.80;3.50;;;;;;;0.91;nan;101466.94;5011567;28;20532;-80
2023/05/01 00:50:11;;;;;;;9.40;3.80;;;;;;;0.92;nan;101454.81;5037215;28;20117;-79
2023/05/01 00:52:38;;;;;;;5.60;3.07;;;;;;;0.89;nan;101459.91;5046425;28;20043;-79
2023/05/01 00:55:06;;;;;;;7.60;3.47;;;;;;;0.91;nan;101455.63;5012053;28;20049;-79
2023/05/01 00:57:33;;;;;;;6.57;3.67;;;;;;;0.89;nan;101447.78;5017926;28;20055;-79
2023/05/01 01:00:00;;;;;;;5.30;3.47;;;;;;;0.88;nan;101453.84;5028581;28;20040;-80
2023/05/01 01:02:27;;;;;;;7.37;3.37;;;;;;;0.81;nan;101454.47;5014621;28;20100;-79
2023/05/01 01:04:54;;;;;;;6.53;3.27;;;;;;;0.82;nan;101446.72;5014792;28;20131;-79
2023/05/01 01:07:46;;;;;;;6.00;3.10;;;;;;;0.86;nan;101442.50;5041015;28;20045;-80
2023/05/01 01:10:42;;;;;;;5.83;2.90;;;;;;;0.88;nan;101447.75;5014146;28;20418;-79
2023/05/01 01:13:32;;;;;;;4.40;2.73;;;;;;;0.75;nan;101446.47;5012259;28;20218;-79
2023/05/01 01:16:27;;;;;;;5.77;3.37;;;;;;;0.82;nan;101438.03;5001671;28;20113;-79
2023/05/01 01:19:11;;;;;;;5.63;3.13;;;;;;;0.81;nan;101446.66;5028742;28;20034;-79
2023/05/01 01:21:40;;;;;;;6.40;3.15;;;;;;;0.79;nan;101453.56;5007328;28;20104;-79
2023/05/01 01:24:44;;;;;;;4.70;2.70;;;;;;;0.88;nan;101450.34;5022286;28;20566;-79
2023/05/01 01:27:37;;;;;;;5.47;4.03;;;;;;;0.89;nan;101445.19;5036105;28;20044;-79
2023/05/01 01:30:13;;;;;;;7.30;3.53;;;;;;;0.79;nan;101449.22;5031691;28;20116;-79
2023/05/01 01:33:15;;;;;;;8.07;3.27;;;;;;;0.63;nan;101446.09;5019168;28;20108;-79
2023/05/01 01:35:50;;;;;;;4.53;2.87;;;;;;;0.49;nan;101451.72;5000905;28;20467;-79
2023/05/01 01:38:23;;;;;;;5.25;2.67;;;;;;;0.53;nan;101442.31;5013161;28;20097;-79
2023/05/01 01:41:02;;;;;;;6.68;3.42;;;;;;;0.59;nan;101444.22;5021635;28;20034;-80
2023/05/01 01:43:37;;;;;;;6.70;3.00;;;;;;;0.57;nan;101447.66;5012620;28;20045;-79
2023/05/01 01:46:05;;;;;;;7.15;3.72;;;;;;;0.62;nan;101446.94;5012556;28;20624;-80
2023/05/01 01:48:41;;;;;;;5.47;3.23;;;;;;;0.54;nan;101442.34;5030935;28;20124;-79
2023/05/01 01:51:12;;;;;;;5.90;3.60;;;;;;;0.53;nan;101444.91;5022045;28;20042;-80
2023/05/01 01:53:40;;;;;;;5.83;3.43;;;;;;;0.54;nan;101434.56;5015314;28;20097;-80
2023/05/01 01:56:07;;;;;;;8.07;4.33;;;;;;;0.55;nan;101438.91;5019747;28;20044;-80
2023/05/01 01:58:35;;;;;;;7.70;4.03;;;;;;;0.50;nan;101437.00;5022786;28;20041;-80
2023/05/01 02:01:03;;;;;;;5.20;3.27;;;;;;;0.53;nan;101430.19;5021640;28;20049;-80
2023/05/01 02:03:31;;;;;;;7.77;4.03;;;;;;;0.55;nan;101428.53;5017100;28;20041;-79
2023/05/01 02:05:59;;;;;;;5.37;3.47;;;;;;;0.45;nan;101431.66;5019870;28;20059;-80
2023/05/01 02:08:28;;;;;;;8.07;3.77;;;;;;;0.41;nan;101424.56;5009796;28;20113;-79
2023/05/01 02:10:58;;;;;;;5.43;3.40;;;;;;;0.41;nan;101421.97;5003587;28;20048;-80
2023/05/01 02:13:28;;;;;;;6.70;3.83;;;;;;;0.45;nan;101421.25;5005614;28;20042;-80
2023/05/01 02:15:57;;;;;;;6.60;3.87;;;;;;;0.46;nan;101414.34;5031244;28;20038;-79
2023/05/01 02:18:26;;;;;;;6.10;3.93;;;;;;;0.43;nan;101404.75;5034356;28;20044;-79
2023/05/01 02:20:55;;;;;;;6.20;3.33;;;;;;;0.35;nan;101411.41;5015442;28;20045;-78
2023/05/01 02:23:24;;;;;;;5.73;3.70;;;;;;;0.24;nan;101404.94;5039760;28;20375;-79
2023/05/01 02:25:52;;;;;;;7.70;4.50;;;;;;;0.26;nan;101403.31;5030648;28;20037;-79
2023/05/01 02:28:21;;;;;;;8.07;4.00;;;;;;;0.31;nan;101406.03;5033396;28;20045;-79
2023/05/01 02:30:48;;;;;;;6.07;3.40;;;;;;;0.33;nan;101399.16;5032954;28;20036;-80
2023/05/01 02:33:15;;;;;;;5.97;3.77;;;;;;;0.39;nan;101401.97;5033770;28;20090;-79
2023/05/01 02:35:43;;;;;;;7.23;4.20;;;;;;;0.33;nan;101402.66;5027912;28;20033;-79
2023/05/01 02:38:11;;;;;;;7.07;4.10;;;;;;;0.29;nan;101393.00;5031019;28;20037;-79
2023/05/01 02:40:39;;;;;;;7.73;4.30;;;;;;;0.30;nan;101399.06;4999417;28;20112;-79
2023/05/01 02:43:08;;;;;;;8.93;4.50;;;;;;;0.24;nan;101387.63;5036587;28;20051;-79
2023/05/01 02:45:38;;;;;;;8.10;4.13;;;;;;;0.18;nan;101389.19;5006388;28;20566;-80
2023/05/01 02:48:06;;;;;;;7.43;3.97;;;;;;;0.20;nan;101390.09;5029384;28;20040;-79
2023/05/01 02:50:36;;;;;;;5.00;3.47;;;;;;;0.17;nan;101379.59;5011236;28;20029;-79
2023/05/01 02:53:03;;;;;;;6.50;3.30;;;;;;;0.17;nan;101379.59;5025438;28;20039;-79
2023/05/01 02:55:30;;;;;;;9.93;4.83;;;;;;;0.15;nan;101378.66;5028517;28;20049;-79
2023/05/01 02:57:58;;;;;;;5.80;3.93;;;;;;;0.23;nan;101377.19;5017013;28;20045;-79
2023/05/01 03:00:26;;;;;;;7.17;3.93;;;;;;;0.16;nan;101383.03;4990622;28;20037;-79
2023/05/01 03:02:53;;;;;;;7.30;3.90;;;;;;;0.16;nan;101380.41;4998464;28;20052;-79
2023/05/01 03:05:23;;;;;;;9.53;4.10;;;;;;;0.23;nan;101385.88;5031849;28;20041;-79
2023/05/01 03:07:51;;;;;;;9.00;4.27;;;;;;;0.24;nan;101386.75;5015098;28;20045;-79
2023/05/01 03:10:18;;;;;;;9.77;4.20;;;;;;;0.22;nan;101376.31;5026075;28;20025;-79
2023/05/01 03:12:45;;;;;;;6.60;4.63;;;;;;;0.23;nan;101372.88;5000668;28;20042;-80
2023/05/01 03:15:12;;;;;;;7.60;4.07;;;;;;;0.25;nan;101363.44;5016652;28;20037;-79
2023/05/01 03:17:38;;;;;;;7.33;4.30;;;;;;;0.31;nan;101360.13;4997518;28;20048;-79
2023/05/01 03:20:06;;;;;;;9.23;3.90;;;;;;;0.25;nan;101368.63;5016490;28;20042;-79
2023/05/01 03:22:33;;;;;;;9.60;4.20;;;;;;;0.31;nan;101361.84;5017021;28;20037;-79
2023/05/01 03:25:01;;;;;;;7.57;4.60;;;;;;;0.21;nan;101369.34;5015041;28;20047;-79
2023/05/01 03:27:29;;;;;;;6.50;4.37;;;;;;;0.19;nan;101360.63;5016400;28;20040;-78
2023/05/01 03:29:56;;;;;;;7.13;3.90;;;;;;;0.14;nan;101349.19;5044350;28;20671;-79
2023/05/01 03:32:23;;;;;;;8.67;4.50;;;;;;;0.17;nan;101351.00;5031066;28;20117;-80
2023/05/01 03:34:50;;;;;;;7.67;4.13;;;;;;;0.28;nan;101345.34;5045254;28;20246;-79
2023/05/01 03:37:17;;;;;;;7.20;4.10;;;;;;;0.34;nan;101342.06;5015743;28;20041;-79
2023/05/01 03:39:45;;;;;;;7.40;4.13;;;;;;;0.39;nan;101342.19;5009059;28;20426;-79
2023/05/01 03:42:12;;;;;;;7.40;4.10;;;;;;;0.41;nan;101336.19;5030031;28;20383;-79
2023/05/01 03:44:39;;;;;;;7.27;3.90;;;;;;;0.31;nan;101331.56;5033457;28;20421;-79
2023/05/01 03:47:06;;;;;;;9.47;3.80;;;;;;;0.28;nan;101329.75;5014097;28;20034;-79
2023/05/01 03:49:33;;;;;;;8.50;4.60;;;;;;;0.38;nan;101335.22;5010849;28;20025;-79
2023/05/01 03:52:00;;;;;;;7.63;4.27;;;;;;;0.42;nan;101338.00;5032599;28;20319;-79
2023/05/01 03:54:27;;;;;;;7.40;3.63;;;;;;;0.48;nan;101338.16;5032705;28;20067;-79
2023/05/01 03:56:54;;;;;;;7.33;4.07;;;;;;;0.42;nan;101335.38;5033215;28;20037;-79
2023/05/01 03:59:21;;;;;;;7.00;4.37;;;;;;;0.40;nan;101337.03;5016909;28;20055;-79
2023/05/01 04:01:48;;;;;;;5.83;3.70;;;;;;;0.45;nan;101335.47;5012059;28;20043;-78
2023/05/01 04:04:15;;;;;;;6.43;3.90;;;;;;;0.56;nan;101328.88;5011938;28;20207;-79
2023/05/01 04:06:42;;;;;;;7.43;4.73;;;;;;;0.61;nan;101330.75;5028681;28;20029;-79
2023/05/01 04:09:09;;;;;;;5.63;3.73;;;;;;;0.62;nan;101328.19;4996034;28;20055;-79
2023/05/01 04:11:36;;;;;;;5.80;3.30;;;;;;;0.66;nan;101334.34;5021575;28;21630;-79
2023/05/01 04:14:04;;;;;;;6.17;4.20;;;;;;;0.55;nan;101334.03;5013691;28;20051;-79
2023/05/01 04:16:31;;;;;;;8.00;4.17;;;;;;;0.54;nan;101333.16;5029050;28;20048;-79
2023/05/01 04:18:58;;;;;;;12.47;4.03;;;;;;;0.65;nan;101332.59;5009560;28;20429;-79
2023/05/01 04:21:25;;;;;;;6.23;3.93;;;;;;;0.65;nan;101333.47;5010733;28;20037;-79
2023/05/01 04:23:52;;;;;;;6.13;3.53;;;;;;;0.69;nan;101329.28;5005697;28;20042;-80
2023/05/01 04:26:19;;;;;;;6.33;3.97;;;;;;;0.69;nan;101327.56;5007925;28;20499;-79
2023/05/01 04:28:46;;;;;;;5.20;3.33;;;;;;;0.84;nan;101328.00;5027666;28;20047;-80
2023/05/01 04:31:13;;;;;;;5.40;3.50;;;;;;;0.75;nan;101325.09;5013852;28;20487;-79
2023/05/01 04:33:40;;;;;;;7.40;3.70;;;;;;;0.81;nan;101329.63;5033656;28;20036;-79
2023/05/01 04:36:07;;;;;;;5.40;3.47;;;;;;;0.94;nan;101323.97;5009631;28;20047;-79
2023/05/01 04:38:35;;;;;;;7.83;3.80;;;;;;;1.05;nan;101321.66;5039780;28;20033;-80
2023/05/01 04:41:04;;;;;;;7.07;3.67;;;;;;;1.07;nan;101318.25;5028735;28;20040;-79
2023/05/01 04:43:31;;;;;;;6.87;4.03;;;;;;;1.18;nan;101315.06;5014605;28;20490;-80
2023/05/01 04:45:58;;;;;;;7.70;4.23;;;;;;;1.32;nan;101308.53;5026017;28;20036;-79
2023/05/01 04:48:25;;;;;;;6.00;3.33;;;;;;;1.32;nan;101305.94;5028293;28;20033;-80
2023/05/01 04:50:53;;;;;;;6.93;3.90;;;;;;;1.33;nan;101308.56;5008749;28;20045;-80
2023/05/01 04:53:20;;;;;;;6.03;3.67;;;;;;;1.34;nan;101318.13;5031824;28;20039;-79
2023/05/01 04:55:47;;;;;;;6.97;4.10;;;;;;;1.43;nan;101309.72;5013491;28;20049;-79
2023/05/01 04:58:15;;;;;;;7.93;4.10;;;;;;;1.48;nan;101308.09;5027792;28;20046;-79
2023/05/01 05:00:41;;;;;;;5.17;3.53;;;;;;;1.55;nan;101302.22;5009128;28;20425;-79
2023/05/01 05:03:08;;;;;;;7.27;4.33;;;;;;;1.73;nan;101312.22;5008596;28;20041;-78
2023/05/01 05:05:36;;;;;;;5.07;3.33;;;;;;;1.86;nan;101300.41;5006426;28;20730;-79
2023/05/01 05:08:03;;;;;;;6.33;4.10;;;;;;;2.00;nan;101304.22;5010680;28;20045;-79
2023/05/01 05:10:30;;;;;;;8.83;4.17;;;;;;;1.97;nan;101297.22;5014298;28;20689;-79
2023/05/01 05:12:58;;;;;;;6.70;3.80;;;;;;;1.97;nan;101298.94;5028508;28;20045;-78
2023/05/01 05:15:25;;;;;;;6.73;4.30;;;;;;;1.98;nan;101296.38;5009367;28;20041;-79
2023/05/01 05:17:52;;;;;;;6.80;4.30;;;;;;;2.12;nan;101299.31;5041718;28;20047;-79
2023/05/01 05:20:21;;;;;;;7.80;3.83;;;;;;;2.07;nan;101293.09;5022735;28;20059;-79
2023/05/01 05:22:48;;;;;;;7.23;4.10;;;;;;;2.20;nan;101289.97;5007026;28;20037;-79
2023/05/01 05:25:15;;;;;;;7.20;4.27;;;;;;;2.41;nan;101286.94;5014798;28;20163;-79
2023/05/01 05:27:42;;;;;;;6.87;4.03;;;;;;;2.68;nan;101291.88;5027131;28;20040;-78
2023/05/01 05:30:10;;;;;;;7.00;3.73;;;;;;;2.78;nan;101291.25;5025478;28;20041;-80
2023/05/01 05:32:37;;;;;;;6.63;4.57;;;;;;;3.03;nan;101289.16;5023727;28;20025;-80
2023/05/01 05:35:05;;;;;;;11.07;5.20;;;;;;;3.13;nan;101285.00;5036721;28;20043;-80
2023/05/01 05:37:32;;;;;;;8.50;5.10;;;;;;;3.11;nan;101279.72;5020797;28;20033;-79
2023/05/01 05:39:59;;;;;;;7.47;4.17;;;;;;;3.29;nan;101280.13;5013052;28;20400;-80
2023/05/01 05:42:26;;;;;;;9.03;4.50;;;;;;;3.55;nan;101272.75;5008885;28;20038;-79
2023/05/01 05:44:53;;;;;;;7.03;4.07;;;;;;;3.83;nan;101263.66;5024782;28;20616;-79
2023/05/01 05:47:20;;;;;;;7.83;4.33;;;;;;;4.14;nan;101277.22;5002569;28;20052;-79
2023/05/01 05:49:47;;;;;;;7.40;4.27;;;;;;;4.44;nan;101268.94;5008096;28;20046;-79
2023/05/01 05:52:14;;;;;;;6.27;4.30;;;;;;;5.67;nan;101259.03;5009244;28;20259;-80
2023/05/01 05:54:42;;;;;;;7.60;3.93;;;;;;;7.25;nan;101253.88;5029680;28;20033;-80
2023/05/01 05:57:09;;;;;;;5.63;3.63;;;;;;;8.20;nan;101251.28;5027161;28;20044;-80
2023/05/01 05:59:36;;;;;;;6.97;3.63;;;;;;;8.62;nan;101249.47;5028198;28;20037;-81
2023/05/01 06:02:03;;;;;;;7.30;4.00;;;;;;;8.38;nan;101246.03;4993261;28;20057;-80
2023/05/01 06:04:31;;;;;;;6.53;4.30;;;;;;;8.00;nan;101239.94;5007625;28;20041;-81
2023/05/01 06:06:59;;;;;;;6.93;4.20;;;;;;;7.92;nan;101242.56;4987211;28;20099;-80
2023/05/01 06:09:27;;;;;;;5.17;4.10;;;;;;;8.14;nan;101241.66;4997280;28;20041;-80
2023/05/01 06:11:57;;;;;;;6.20;3.60;;;;;;;8.23;nan;101242.50;5012191;28;20051;-81
2023/05/01 06:14:24;;;;;;;7.20;4.03;;;;;;;8.72;nan;101235.41;5013814;28;20041;-81
2023/05/01 06:16:51;;;;;;;5.63;3.40;;;;;;;9.99;nan;101243.38;5012118;28;20040;-80
2023/05/01 06:19:19;;;;;;;8.00;3.87;;;;;;;11.20;nan;101228.84;5045402;28;20070;-82
2023/05/01 06:21:46;;;;;;;6.28;3.75;;;;;;;12.67;nan;101214.88;5007184;28;20693;-81
2023/05/01 06:24:14;;;;;;;7.50;3.70;;;;;;;13.84;nan;101218.44;5025049;28;20047;-81
2023/05/01 06:26:41;;;;;;;7.30;3.75;;;;;;;14.60;nan;101212.91;5019600;28;20047;-80
2023/05/01 06:29:08;;;;;;;6.70;3.92;;;;;;;15.22;nan;101210.22;4994872;28;20037;-81
2023/05/01 06:31:35;;;;;;;5.20;3.92;;;;;;;15.81;nan;101214.53;5024528;28;20040;-81
2023/05/01 06:34:02;;;;;;;8.18;4.40;;;;;;;16.11;nan;101215.31;5007826;28;20634;-81
2023/05/01 06:36:30;;;;;;;16.30;9.80;;;;;;;15.59;nan;101209.91;5010259;28;20395;-82
2023/05/01 06:38:57;;;;;;;5.60;3.97;;;;;;;15.56;nan;101206.47;5002447;28;20047;-81
2023/05/01 06:41:24;;;;;;;8.95;5.03;;;;;;;15.15;nan;101212.19;5006631;28;20037;-81
2023/05/01 06:43:52;;;;;;;12.15;7.22;;;;;;;14.51;nan;101216.69;5031842;28;20043;-81
2023/05/01 06:46:19;;;;;;;10.65;6.85;;;;;;;14.45;nan;101211.53;5000189;28;20034;-81
2023/05/01 06:48:46;;;;;;;5.45;3.72;;;;;;;14.42;nan;101213.41;5011260;28;20348;-81
2023/05/01 06:51:14;;;;;;;5.32;4.25;;;;;;;14.15;nan;101212.38;4992959;28;20495;-80
2023/05/01 06:53:41;;;;;;;5.45;3.50;;;;;;;14.14;nan;101208.84;5010484;28;20044;-81
2023/05/01 06:56:08;;;;;;;4.88;3.30;;;;;;;14.20;nan;101195.38;5032973;28;20047;-80
2023/05/01 06:58:35;;;;;;;4.97;3.53;;;;;;;13.01;nan;101198.25;5017593;28;20419;-81
2023/05/01 07:01:02;;;;;;;7.55;3.60;;;;;;;13.76;nan;101202.72;5012834;28;20041;-81
2023/05/01 07:03:29;;;;;;;6.63;3.63;;;;;;;13.93;nan;101204.06;5015780;28;20059;-83
2023/05/01 07:05:56;;;;;;;4.85;3.42;;;;;;;14.18;nan;101201.63;5017001;28;20041;-80
2023/05/01 07:08:26;;;;;;;7.38;4.35;;;;;;;13.90;nan;101206.81;5005464;28;20048;-83
2023/05/01 07:10:54;;;;;;;5.75;3.50;;;;;;;14.11;nan;101202.72;4994488;28;20823;-82
2023/05/01 07:13:21;;;;;;;5.43;3.80;;;;;;;14.14;nan;101200.88;4997298;28;20048;-82
2023/05/01 07:15:49;;;;;;;6.03;3.53;;;;;;;14.08;nan;101201.88;5029530;28;20495;-84
2023/05/01 07:18:17;;;;;;;4.40;2.85;;;;;;;14.09;nan;101202.75;5032112;28;20033;-82
2023/05/01 07:20:44;;;;;;;4.82;3.08;;;;;;;14.34;nan;101197.66;5014212;28;20067;-83
2023/05/01 07:23:11;;;;;;;5.18;3.25;;;;;;;14.54;nan;101194.47;5013057;28;20049;-83
2023/05/01 07:25:40;;;;;;;4.35;3.45;;;;;;;14.81;nan;101190.16;5016267;28;20043;-84
2023/05/01 07:28:07;;;;;;;5.63;3.45;;;;;;;15.02;nan;101192.16;5032065;28;20045;-84
2023/05/01 07:30:37;;;;;;;6.55;3.58;;;;;;;15.17;nan;101197.03;5014405;28;20037;-85
2023/05/01 07:33:04;;;;;;;5.93;3.47;;;;;;;15.11;nan;101191.88;5033308;28;20045;-83
2023/05/01 07:35:31;;;;;;;5.90;3.50;;;;;;;15.10;nan;101179.50;5028824;28;20048;-83
2023/05/01 07:37:58;;;;;;;5.80;3.97;;;;;;;14.93;nan;101177.34;5019117;28;20045;-84
2023/05/01 07:40:25;;;;;;;4.50;2.78;;;;;;;15.13;nan;101179.44;5018455;28;20040;-83
2023/05/01 07:42:52;;;;;;;7.90;4.03;;;;;;;15.27;nan;101175.44;5008740;28;20051;-85
2023/05/01 07:45:20;;;;;;;4.90;3.58;;;;;;;15.44;nan;101160.66;5029003;28;20037;-86
2023/05/01 07:47:48;;;;;;;4.88;3.45;;;;;;;15.52;nan;101157.75;5022828;28;20380;-84
2023/05/01 07:50:16;;;;;;;5.00;3.17;;;;;;;15.62;nan;101161.00;5041606;28;20033;-82
2023/05/01 07:52:43;;;;;;;5.25;3.20;;;;;;;15.46;nan;101157.94;5029851;28;20514;-83
2023/05/01 07:55:10;;;;;;;5.97;3.30;;;;;;;15.62;nan;101158.34;5012642;28;20057;-83
2023/05/01 07:57:38;;;;;;;5.53;3.20;;;;;;;15.73;nan;101161.53;5016716;28;20083;-82
2023/05/01 08:00:06;;;;;;;5.97;3.25;;;;;;;15.86;nan;101161.97;5013419;28;20040;-82
2023/05/01 08:02:33;;;;;;;4.40;3.40;;;;;;;15.74;nan;101161.50;5046377;28;20037;-82
2023/05/01 08:05:02;;;;;;;4.70;2.80;;;;;;;15.71;nan;101156.25;5021491;28;20511;-83
2023/05/01 08:07:30;;;;;;;4.88;3.00;;;;;;;15.73;nan;101143.75;5024209;28;20398;-82
2023/05/01 08:09:59;;;;;;;6.97;3.20;;;;;;;15.82;nan;101142.59;5013568;28;20449;-82
2023/05/01 08:12:28;;;;;;;6.57;3.70;;;;;;;15.85;nan;101130.94;5029501;28;20039;-82
2023/05/01 08:14:55;;;;;;;7.10;2.88;;;;;;;15.85;nan;101129.13;5013730;28;20030;-85
2023/05/01 08:17:22;;;;;;;6.30;3.17;;;;;;;15.89;nan;101133.44;5013081;28;20041;-82
2023/05/01 08:19:49;;;;;;;5.78;3.00;;;;;;;16.01;nan;101133.00;5017305;28;20064;-82
2023/05/01 08:22:16;;;;;;;4.15;2.88;;;;;;;15.92;nan;101135.13;5016635;28;20036;-83
2023/05/01 08:24:44;;;;;;;4.60;3.17;;;;;;;16.06;nan;101140.84;5032829;28;20032;-81
2023/05/01 08:27:11;;;;;;;4.82;3.17;;;;;;;16.14;nan;101144.09;5032351;28;20087;-81
2023/05/01 08:29:38;;;;;;;6.50;3.00;;;;;;;16.21;nan;101136.75;5033541;28;20152;-82
2023/05/01 08:32:05;;;;;;;5.07;2.88;;;;;;;16.30;nan;101137.28;5019063;28;20116;-82
2023/05/01 08:34:32;;;;;;;6.03;3.00;;;;;;;16.08;nan;101133.66;5011086;28;20041;-82
2023/05/01 08:36:59;;;;;;;4.43;2.78;;;;;;;16.19;nan;101126.16;5015468;28;20037;-81
2023/05/01 08:39:26;;;;;;;5.95;2.72;;;;;;;16.25;nan;101136.59;5018456;28;20422;-82
2023/05/01 08:41:54;;;;;;;5.28;2.95;;;;;;;16.07;nan;101120.41;5020071;28;20488;-81
2023/05/01 08:44:24;;;;;;;4.07;2.65;;;;;;;16.21;nan;101129.63;5010006;28;20041;-81
2023/05/01 08:47:12;;;;;;;4.82;3.53;;;;;;;16.24;nan;101123.31;5032481;28;20220;-82
2023/05/01 08:49:40;;;;;;;5.28;3.10;;;;;;;16.15;nan;101119.19;5034112;28;20029;-83
2023/05/01 08:52:10;;;;;;;7.85;3.70;;;;;;;16.53;nan;101119.56;5000334;28;20254;-82
2023/05/01 08:54:43;;;;;;;6.13;3.15;;;;;;;16.74;nan;101102.78;5025944;28;20052;-80
2023/05/01 08:57:11;;;;;;;6.22;3.13;;;;;;;16.88;nan;101105.75;5015385;28;20041;-82
2023/05/01 08:59:39;;;;;;;6.25;3.17;;;;;;;16.82;nan;101098.00;5033892;28;20490;-83
2023/05/01 09:02:07;;;;;;;5.47;3.20;;;;;;;17.16;nan;101094.00;5011424;28;20033;-83
2023/05/01 09:04:39;;;;;;;5.75;2.90;;;;;;;17.07;nan;101097.03;5009514;28;20045;-84
2023/05/01 09:07:08;;;;;;;6.35;2.60;;;;;;;16.75;nan;101096.50;5012230;28;20181;-82
2023/05/01 09:09:35;;;;;;;4.70;2.50;;;;;;;16.94;nan;101082.44;5002325;28;20041;-82
2023/05/01 09:12:16;;;;;;;6.07;2.72;;;;;;;16.94;nan;101080.63;5008061;28;20045;-83
2023/05/01 09:14:44;;;;;;;4.95;2.80;;;;;;;17.14;nan;101086.03;5012230;28;20041;-83
2023/05/01 09:17:12;;;;;;;4.70;2.75;;;;;;;17.36;nan;101077.13;5001205;28;20046;-81
2023/05/01 09:19:39;;;;;;;4.68;2.30;;;;;;;17.36;nan;101074.47;5027742;28;20030;-82
2023/05/01 09:22:08;;;;;;;6.25;2.60;;;;;;;17.41;nan;101070.69;5014390;28;20029;-84
2023/05/01 09:24:35;;;;;;;6.07;2.10;;;;;;;17.01;nan;101070.59;5015122;28;20037;-82
2023/05/01 09:27:02;;;;;;;6.78;2.80;;;;;;;17.09;nan;101068.47;5015631;28;20041;-82
2023/05/01 09:29:40;;;;;;;3.80;2.20;;;;;;;17.29;nan;101063.16;5024484;28;20043;-81
2023/05/01 09:32:26;;;;;;;4.47;2.90;;;;;;;17.58;nan;101053.06;5030930;28;20545;-83
2023/05/01 09:34:55;;;;;;;5.72;2.10;;;;;;;17.79;nan;101053.94;5009693;28;20067;-80
2023/05/01 09:37:30;;;;;;;4.90;2.58;;;;;;;17.88;nan;101058.88;5038788;28;20045;-82
2023/05/01 09:40:07;;;;;;;4.72;2.65;;;;;;;18.16;nan;101046.03;5029391;28;20083;-80
2023/05/01 09:42:56;;;;;;;2.90;2.25;;;;;;;18.34;nan;101051.47;5013628;28;20051;-81
2023/05/01 09:45:25;;;;;;;5.30;2.38;;;;;;;18.20;nan;101038.72;5056922;28;20055;-80
2023/05/01 09:48:09;;;;;;;6.38;2.50;;;;;;;18.46;nan;101038.38;5028361;28;20041;-80
2023/05/01 09:50:38;;;;;;;;;;;;;;;18.53;nan;101030.94;5011825;28;20037;-81
2023/05/01 09:53:05;;;;;;;5.32;2.60;;;;;;;18.07;nan;101025.03;5009356;28;20329;-84
2023/05/01 09:55:33;;;;;;;5.13;2.47;;;;;;;18.51;nan;101020.31;5026184;28;20067;-83
2023/05/01 09:58:00;;;;;;;6.45;2.50;;;;;;;18.77;nan;101015.53;5006778;28;20672;-82
2023/05/01 10:00:28;;;;;;;3.63;2.33;;;;;;;18.79;nan;101008.28;5008504;28;20037;-82
2023/05/01 10:02:56;;;;;;;5.88;2.55;;;;;;;18.46;nan;101008.06;5011014;28;20049;-81
2023/05/01 10:05:23;;;;;;;7.40;2.70;;;;;;;18.81;nan;101006.41;5012502;28;20036;-81
2023/05/01 10:08:13;;;;;;;3.85;2.30;;;;;;;18.91;nan;101002.31;5006219;28;20044;-82
2023/05/01 10:10:42;;;;;;;4.50;2.70;;;;;;;18.28;nan;100996.44;5012272;28;20033;-83
2023/05/01 10:13:14;;;;;;;3.50;2.50;;;;;;;17.88;nan;100989.38;5026818;28;20025;-82
2023/05/01 10:15:41;;;;;;;5.95;3.25;;;;;;;18.64;nan;100992.94;5013461;28;20037;-84
2023/05/01 10:18:11;;;;;;;5.05;2.38;;;;;;;19.06;nan;100980.13;5015390;28;20041;-84
2023/05/01 10:20:39;;;;;;;4.30;2.33;;;;;;;19.31;nan;100992.28;5026685;28;20029;-84
2023/05/01 10:23:06;;;;;;;4.50;2.13;;;;;;;19.39;nan;100987.41;5008507;28;20045;-84
2023/05/01 10:25:33;;;;;;;5.80;2.42;;;;;;;19.01;nan;100982.19;5019468;28;20226;-84
2023/05/01 10:28:03;;;;;;;3.42;2.20;;;;;;;19.01;nan;100968.81;5026774;28;20504;-84
2023/05/01 10:30:31;;;;;;;4.22;2.60;;;;;;;19.12;nan;100966.44;5023108;28;20510;-83
2023/05/01 10:32:58;;;;;;;3.83;2.35;;;;;;;19.32;nan;100968.09;5002470;28;20033;-84
2023/05/01 10:35:30;;;;;;;41.80;6.10;;;;;;;19.55;nan;100972.25;5014332;28;20041;-81
2023/05/01 10:37:59;;;;;;;4.25;2.30;;;;;;;19.45;nan;100957.59;5029771;28;20043;-82
2023/05/01 10:40:38;;;;;;;3.47;2.25;;;;;;;19.67;nan;100958.25;5029893;28;20047;-81
2023/05/01 10:43:12;;;;;;;4.03;2.40;;;;;;;19.48;nan;100944.03;5032040;28;20348;-82
2023/05/01 10:45:39;;;;;;;;;;;;;;;19.81;nan;100948.56;5046998;28;20059;-83
2023/05/01 10:48:08;;;;;;;5.05;2.80;;;;;;;19.87;nan;100943.75;5010104;28;19943;-81
2023/05/01 10:51:13;;;;;;;4.53;2.50;;;;;;;19.95;nan;100933.47;5030238;28;20047;-81
2023/05/01 10:53:41;;;;;;;3.42;2.50;;;;;;;20.21;nan;100928.47;5010030;28;20037;-81
2023/05/01 10:56:22;;;;;;;4.88;2.40;;;;;;;20.30;nan;100932.47;5042695;28;20048;-81
2023/05/01 10:58:52;;;;;;;3.47;2.50;;;;;;;20.18;nan;100920.63;5029592;28;20029;-81
2023/05/01 11:01:38;;;;;;;4.88;2.70;;;;;;;19.33;nan;100920.72;5031069;28;20043;-81
2023/05/01 11:04:25;;;;;;;5.80;2.70;;;;;;;19.67;nan;100914.47;5012780;28;20040;-82
2023/05/01 11:07:06;;;;;;;3.58;2.35;;;;;;;19.86;nan;100914.34;5022741;28;20043;-82
2023/05/01 11:09:36;;;;;;;3.65;2.50;;;;;;;19.79;nan;100903.09;5007821;28;20041;-82
2023/05/01 11:12:04;;;;;;;4.97;2.85;;;;;;;20.15;nan;100902.84;5009642;28;20045;-83
2023/05/01 11:14:55;;;;;;;6.15;2.67;;;;;;;20.22;nan;100901.56;5008067;28;21554;-82
2023/05/01 11:17:41;;;;;;;4.75;2.70;;;;;;;20.50;nan;100905.38;5041936;28;20039;-80
2023/05/01 11:20:33;;;;;;;3.92;2.20;;;;;;;20.71;nan;100895.22;5028399;28;20055;-82
2023/05/01 11:23:00;;;;;;;4.97;2.70;;;;;;;20.68;nan;100900.75;5046135;28;20037;-81
2023/05/01 11:25:29;;;;;;;6.10;2.80;;;;;;;20.40;nan;100888.03;5019890;28;20456;-83
2023/05/01 11:27:59;;;;;;;15.48;12.13;;;;;;;20.34;nan;100885.69;4987853;28;20099;-82
2023/05/01 11:30:38;;;;;;;7.75;2.83;;;;;;;20.23;nan;100884.50;5011833;28;20037;-81
2023/05/01 11:33:05;;;;;;;4.78;4.28;;;;;;;20.16;nan;100871.53;5009569;28;20037;-82
2023/05/01 11:35:35;;;;;;;4.50;3.75;;;;;;;20.25;nan;100869.19;5012578;28;20455;-82
2023/05/01 11:38:02;;;;;;;74.50;57.67;;;;;;;20.21;nan;100864.09;5040393;28;20036;-80
2023/05/01 11:40:30;;;;;;;24.80;19.00;;;;;;;20.35;nan;100860.63;5014279;28;20041;-82
2023/05/01 11:43:07;;;;;;;20.17;15.00;;;;;;;20.25;nan;100850.38;5013782;28;20048;-82
2023/05/01 11:45:35;;;;;;;7.35;5.68;;;;;;;20.34;nan;100851.69;5029489;28;20037;-82
2023/05/01 11:48:03;;;;;;;4.15;2.67;;;;;;;20.35;nan;100839.16;5020170;28;20044;-81
2023/05/01 11:50:34;;;;;;;2.80;2.40;;;;;;;20.14;nan;100827.84;5026876;28;20413;-82
2023/05/01 11:53:02;;;;;;;7.47;3.30;;;;;;;20.40;nan;100842.41;5025299;28;20029;-80
2023/05/01 11:55:33;;;;;;;4.65;2.80;;;;;;;20.47;nan;100833.94;5009651;28;20400;-83
2023/05/01 11:58:01;;;;;;;3.53;2.45;;;;;;;19.94;nan;100835.22;5022271;28;20044;-82